createdAt,value
2022-08-12T00:01:09.780Z,25.08
2022-08-12T00:02:30.264Z,25.05
2022-08-12T00:03:51.482Z,25.04
2022-08-12T00:05:11.944Z,25.02
2022-08-12T00:06:33.789Z,24.99
2022-08-12T00:07:56.504Z,24.98
2022-08-12T00:09:17.246Z,24.98
2022-08-12T00:10:39.052Z,24.95
2022-08-12T00:12:00.148Z,24.94
2022-08-12T00:13:20.557Z,24.93
2022-08-12T00:14:41.283Z,24.92
2022-08-12T00:16:03.790Z,24.90
2022-08-12T00:17:25.298Z,24.88
2022-08-12T00:18:45.638Z,24.86
2022-08-12T00:20:05.734Z,24.85
2022-08-12T00:21:26.717Z,24.84
2022-08-12T00:22:58.784Z,24.82
2022-08-12T00:24:19.782Z,24.81
2022-08-12T00:25:55.850Z,24.78
2022-08-12T00:27:20.453Z,24.78
2022-08-12T00:28:40.829Z,24.75
2022-08-12T00:30:01.756Z,24.73
2022-08-12T00:31:23.791Z,24.71
2022-08-12T00:32:56.638Z,24.70
2022-08-12T00:34:17.516Z,24.69
2022-08-12T00:35:37.900Z,24.66
2022-08-12T00:37:05.476Z,24.64
2022-08-12T00:38:34.307Z,24.63
2022-08-12T00:39:55.937Z,24.61
2022-08-12T00:41:17.142Z,24.59
2022-08-12T00:42:20.982Z,24.58
2022-08-12T00:43:25.808Z,24.57
2022-08-12T00:44:27.946Z,24.57
2022-08-12T00:45:52.151Z,24.56
2022-08-12T00:46:57.811Z,24.56
2022-08-12T00:48:00.498Z,24.54
2022-08-12T00:49:02.890Z,24.54
2022-08-12T00:50:06.436Z,24.52
2022-08-12T00:51:09.212Z,24.53
2022-08-12T00:52:13.928Z,24.53
2022-08-12T00:53:19.141Z,24.51
2022-08-12T00:54:22.040Z,24.50
2022-08-12T00:55:23.673Z,24.50
2022-08-12T00:56:29.273Z,24.49
2022-08-12T00:57:35.694Z,24.48
2022-08-12T00:58:44.647Z,24.47
2022-08-12T00:59:50.577Z,24.46
2022-08-12T01:00:59.643Z,24.44
2022-08-12T01:02:10.957Z,24.43
2022-08-12T01:03:18.550Z,24.41
2022-08-12T01:04:41.379Z,24.41
2022-08-12T01:06:04.760Z,24.38
2022-08-12T01:07:26.766Z,24.36
2022-08-12T01:08:55.434Z,24.34
2022-08-12T01:10:19.893Z,24.33
2022-08-12T01:11:32.803Z,24.30
2022-08-12T01:12:36.279Z,24.28
2022-08-12T01:13:42.208Z,24.27
2022-08-12T01:14:44.418Z,24.26
2022-08-12T01:15:50.238Z,24.25
2022-08-12T01:16:52.710Z,24.24
2022-08-12T01:17:56.804Z,24.22
2022-08-12T01:19:00.746Z,24.21
2022-08-12T01:20:06.293Z,24.20
2022-08-12T01:21:16.615Z,24.19
2022-08-12T01:22:31.064Z,24.18
2022-08-12T01:23:51.894Z,24.17
2022-08-12T01:24:59.819Z,24.16
2022-08-12T01:26:04.411Z,24.13
2022-08-12T01:27:08.152Z,24.12
2022-08-12T01:28:13.575Z,24.13
2022-08-12T01:29:18.641Z,24.11
2022-08-12T01:30:22.252Z,24.09
2022-08-12T01:31:24.061Z,24.09
2022-08-12T01:32:29.320Z,24.08
2022-08-12T01:33:37.169Z,24.09
2022-08-12T01:34:46.272Z,24.06
2022-08-12T01:35:57.861Z,24.06
2022-08-12T01:37:11.322Z,24.04
2022-08-12T01:38:16.226Z,24.03
2022-08-12T01:39:19.115Z,24.02
2022-08-12T01:40:35.179Z,24.02
2022-08-12T01:41:45.035Z,24.00
2022-08-12T01:42:58.339Z,24.00
2022-08-12T01:44:02.553Z,23.98
2022-08-12T01:45:05.206Z,23.97
2022-08-12T01:46:11.034Z,23.96
2022-08-12T01:47:22.577Z,23.95
2022-08-12T01:48:35.656Z,23.93
2022-08-12T01:49:54.249Z,23.91
2022-08-12T01:51:06.587Z,23.89
2022-08-12T01:52:24.273Z,23.87
2022-08-12T01:53:48.604Z,23.85
2022-08-12T01:54:53.172Z,23.82
2022-08-12T01:55:57.506Z,23.81
2022-08-12T01:57:06.679Z,23.80
2022-08-12T01:58:19.808Z,23.77
2022-08-12T01:59:46.955Z,23.76
2022-08-12T02:00:58.977Z,23.74
2022-08-12T02:02:04.796Z,23.70
2022-08-12T02:03:27.748Z,23.68
2022-08-12T02:04:58.627Z,23.66
2022-08-12T02:06:32.100Z,23.64
2022-08-12T02:08:01.964Z,23.62
2022-08-12T02:09:22.998Z,23.59
2022-08-12T02:10:56.234Z,23.57
2022-08-12T02:12:08.559Z,23.56
2022-08-12T02:13:41.703Z,23.55
2022-08-12T02:14:57.477Z,23.53
2022-08-12T02:16:06.734Z,23.50
2022-08-12T02:17:27.563Z,23.49
2022-08-12T02:18:55.738Z,23.49
2022-08-12T02:20:08.935Z,23.46
2022-08-12T02:21:22.282Z,23.45
2022-08-12T02:22:30.285Z,23.44
2022-08-12T02:23:34.716Z,23.42
2022-08-12T02:24:40.466Z,23.41
2022-08-12T02:25:45.466Z,23.40
2022-08-12T02:26:49.947Z,23.39
2022-08-12T02:27:55.984Z,23.38
2022-08-12T02:28:59.889Z,23.35
2022-08-12T02:30:03.633Z,23.33
2022-08-12T02:31:08.812Z,23.32
2022-08-12T02:32:11.285Z,23.31
2022-08-12T02:33:14.161Z,23.30
2022-08-12T02:34:16.650Z,23.29
2022-08-12T02:35:21.258Z,23.27
2022-08-12T02:36:23.068Z,23.28
2022-08-12T02:37:30.182Z,23.26
2022-08-12T02:38:32.963Z,23.25
2022-08-12T02:39:40.652Z,23.25
2022-08-12T02:40:46.190Z,23.23
2022-08-12T02:41:51.009Z,23.22
2022-08-12T02:42:57.955Z,23.21
2022-08-12T02:44:05.538Z,23.20
2022-08-12T02:45:08.709Z,23.18
2022-08-12T02:46:14.751Z,23.18
2022-08-12T02:47:58.190Z,23.16
2022-08-12T02:48:51.047Z,23.16
2022-08-12T02:49:56.454Z,23.15
2022-08-12T02:51:06.407Z,23.14
2022-08-12T02:52:09.430Z,23.13
2022-08-12T02:53:13.199Z,23.11
2022-08-12T02:54:15.280Z,23.10
2022-08-12T02:55:28.894Z,23.10
2022-08-12T02:56:40.705Z,23.07
2022-08-12T02:57:44.533Z,23.06
2022-08-12T02:58:47.656Z,23.06
2022-08-12T02:59:51.693Z,23.05
2022-08-12T03:00:53.889Z,23.03
2022-08-12T03:02:03.151Z,23.01
2022-08-12T03:03:08.071Z,23.00
2022-08-12T03:04:20.308Z,23.00
2022-08-12T03:05:24.211Z,22.98
2022-08-12T03:06:33.261Z,22.97
2022-08-12T03:07:59.601Z,22.96
2022-08-12T03:09:04.693Z,22.95
2022-08-12T03:10:16.118Z,22.95
2022-08-12T03:11:26.467Z,22.93
2022-08-12T03:12:34.085Z,22.92
2022-08-12T03:13:40.166Z,22.90
2022-08-12T03:14:44.204Z,22.88
2022-08-12T03:15:47.497Z,22.88
2022-08-12T03:17:03.656Z,22.85
2022-08-12T03:18:26.247Z,22.85
2022-08-12T03:19:31.085Z,22.83
2022-08-12T03:20:38.028Z,22.82
2022-08-12T03:21:54.680Z,22.80
2022-08-12T03:23:06.017Z,22.80
2022-08-12T03:24:09.125Z,22.78
2022-08-12T03:25:17.167Z,22.78
2022-08-12T03:26:25.935Z,22.76
2022-08-12T03:27:30.043Z,22.77
2022-08-12T03:28:51.811Z,22.75
2022-08-12T03:29:58.998Z,22.74
2022-08-12T03:31:02.788Z,22.73
2022-08-12T03:32:45.623Z,22.73
2022-08-12T03:33:36.473Z,22.71
2022-08-12T03:34:40.665Z,22.69
2022-08-12T03:35:46.233Z,22.69
2022-08-12T03:36:55.442Z,22.68
2022-08-12T03:38:01.617Z,22.68
2022-08-12T03:39:35.401Z,22.66
2022-08-12T03:41:08.805Z,22.65
2022-08-12T03:42:28.617Z,22.65
2022-08-12T03:43:53.355Z,22.63
2022-08-12T03:45:32.233Z,22.61
2022-08-12T03:46:57.540Z,22.61
2022-08-12T03:48:23.028Z,22.58
2022-08-12T03:49:43.404Z,22.56
2022-08-12T03:51:04.678Z,22.55
2022-08-12T03:52:24.864Z,22.53
2022-08-12T03:53:47.195Z,22.50
2022-08-12T03:55:07.613Z,22.49
2022-08-12T03:56:28.006Z,22.47
2022-08-12T03:57:48.914Z,22.46
2022-08-12T03:59:11.628Z,22.43
2022-08-12T04:00:23.893Z,22.41
2022-08-12T04:01:26.451Z,22.39
2022-08-12T04:02:29.305Z,22.38
2022-08-12T04:03:50.425Z,22.38
2022-08-12T04:04:53.022Z,22.36
2022-08-12T04:05:56.667Z,22.35
2022-08-12T04:07:00.122Z,22.33
2022-08-12T04:08:02.327Z,22.32
2022-08-12T04:09:14.546Z,22.31
2022-08-12T04:10:19.447Z,22.30
2022-08-12T04:11:46.913Z,22.29
2022-08-12T04:13:15.035Z,22.30
2022-08-12T04:14:20.651Z,22.29
2022-08-12T04:15:27.801Z,22.28
2022-08-12T04:16:29.490Z,22.26
2022-08-12T04:17:32.910Z,22.27
2022-08-12T04:18:35.505Z,22.26
2022-08-12T04:19:38.825Z,22.26
2022-08-12T04:20:42.275Z,22.26
2022-08-12T04:22:01.078Z,22.27
2022-08-12T04:23:08.361Z,22.27
2022-08-12T04:24:11.617Z,22.28
2022-08-12T04:25:14.467Z,22.27
2022-08-12T04:26:17.709Z,22.27
2022-08-12T04:27:19.633Z,22.27
2022-08-12T04:28:27.804Z,22.27
2022-08-12T04:30:21.254Z,22.28
2022-08-12T04:30:58.779Z,22.27
2022-08-12T04:32:01.477Z,22.26
2022-08-12T04:33:04.042Z,22.25
2022-08-12T04:34:07.464Z,22.24
2022-08-12T04:35:09.828Z,22.22
2022-08-12T04:36:12.437Z,22.22
2022-08-12T04:37:15.932Z,22.22
2022-08-12T04:38:20.114Z,22.20
2022-08-12T04:39:22.437Z,22.20
2022-08-12T04:40:28.913Z,22.21
2022-08-12T04:41:31.508Z,22.20
2022-08-12T04:42:34.036Z,22.19
2022-08-12T04:44:00.108Z,22.18
2022-08-12T04:44:58.556Z,22.18
2022-08-12T04:46:02.991Z,22.18
2022-08-12T04:47:06.563Z,22.17
2022-08-12T04:48:08.695Z,22.18
2022-08-12T04:49:11.503Z,22.18
2022-08-12T04:50:35.229Z,22.17
2022-08-12T04:51:38.733Z,22.16
2022-08-12T04:52:41.329Z,22.15
2022-08-12T04:53:44.419Z,22.14
2022-08-12T04:54:48.384Z,22.14
2022-08-12T04:55:52.199Z,22.13
2022-08-12T04:57:04.815Z,22.13
2022-08-12T04:58:07.255Z,22.14
2022-08-12T04:59:09.865Z,22.14
2022-08-12T05:00:13.993Z,22.12
2022-08-12T05:01:18.425Z,22.14
2022-08-12T05:02:22.651Z,22.15
2022-08-12T05:03:26.320Z,22.16
2022-08-12T05:04:28.117Z,22.14
2022-08-12T05:05:35.714Z,22.15
2022-08-12T05:06:37.849Z,22.14
2022-08-12T05:07:53.653Z,22.15
2022-08-12T05:08:59.717Z,22.14
2022-08-12T05:10:02.725Z,22.16
2022-08-12T05:11:06.053Z,22.15
2022-08-12T05:12:13.214Z,22.15
2022-08-12T05:13:17.032Z,22.17
2022-08-12T05:14:19.744Z,22.17
2022-08-12T05:15:29.241Z,22.18
2022-08-12T05:16:36.087Z,22.20
2022-08-12T05:17:38.028Z,22.20
2022-08-12T05:18:41.014Z,22.21
2022-08-12T05:19:47.473Z,22.23
2022-08-12T05:20:51.948Z,22.24
2022-08-12T05:21:53.516Z,22.24
2022-08-12T05:23:12.713Z,22.26
2022-08-12T05:24:15.485Z,22.28
2022-08-12T05:25:20.070Z,22.28
2022-08-12T05:26:25.052Z,22.30
2022-08-12T05:27:27.900Z,22.31
2022-08-12T05:28:30.260Z,22.33
2022-08-12T05:30:06.758Z,22.32
2022-08-12T05:30:56.778Z,22.36
2022-08-12T05:32:00.731Z,22.38
2022-08-12T05:33:05.217Z,22.39
2022-08-12T05:34:07.782Z,22.43
2022-08-12T05:35:10.491Z,22.44
2022-08-12T05:36:15.965Z,22.46
2022-08-12T05:37:17.567Z,22.47
2022-08-12T05:38:38.384Z,22.51
2022-08-12T05:39:42.106Z,22.55
2022-08-12T05:40:43.793Z,22.56
2022-08-12T05:41:46.399Z,22.58
2022-08-12T05:42:48.051Z,22.59
2022-08-12T05:43:52.522Z,22.62
2022-08-12T05:44:54.100Z,22.65
2022-08-12T05:45:57.114Z,22.69
2022-08-12T05:47:01.109Z,22.76
2022-08-12T05:48:02.935Z,22.83
2022-08-12T05:49:06.691Z,22.94
2022-08-12T05:50:08.822Z,23.04
2022-08-12T05:51:16.781Z,23.16
2022-08-12T05:52:18.415Z,23.25
2022-08-12T05:53:22.032Z,23.35
2022-08-12T05:54:47.405Z,23.46
2022-08-12T05:55:47.310Z,23.58
2022-08-12T05:56:50.079Z,23.67
2022-08-12T05:57:55.316Z,23.75
2022-08-12T05:58:59.172Z,23.83
2022-08-12T06:00:00.754Z,23.90
2022-08-12T06:02:12.548Z,23.98
2022-08-12T06:02:31.426Z,24.02
2022-08-12T06:03:33.187Z,24.06
2022-08-12T06:04:35.885Z,24.11
2022-08-12T06:05:52.631Z,24.17
2022-08-12T06:06:58.466Z,24.21
2022-08-12T06:08:03.189Z,24.27
2022-08-12T06:09:06.036Z,24.32
2022-08-12T06:10:08.412Z,24.38
2022-08-12T06:11:11.030Z,24.43
2022-08-12T06:12:12.576Z,24.48
2022-08-12T06:13:28.286Z,24.54
2022-08-12T06:14:39.289Z,24.60
2022-08-12T06:15:41.692Z,24.68
2022-08-12T06:16:46.249Z,24.76
2022-08-12T06:17:49.209Z,24.84
2022-08-12T06:18:52.209Z,24.92
2022-08-12T06:20:22.898Z,24.98
2022-08-12T06:21:18.637Z,25.04
2022-08-12T06:22:20.263Z,25.09
2022-08-12T06:23:22.823Z,25.14
2022-08-12T06:24:28.505Z,25.20
2022-08-12T06:25:31.485Z,25.25
2022-08-12T06:26:34.455Z,25.32
2022-08-12T06:27:42.727Z,25.39
2022-08-12T06:29:05.242Z,25.44
2022-08-12T06:30:14.249Z,25.50
2022-08-12T06:31:28.467Z,25.57
2022-08-12T06:32:30.294Z,25.63
2022-08-12T06:33:55.176Z,25.71
2022-08-12T06:35:26.731Z,25.76
2022-08-12T06:36:24.926Z,25.82
2022-08-12T06:37:39.901Z,25.88
2022-08-12T06:38:42.815Z,25.95
2022-08-12T06:39:44.642Z,25.99
2022-08-12T06:41:05.445Z,26.05
2022-08-12T06:42:31.998Z,26.08
2022-08-12T06:44:05.672Z,26.12
2022-08-12T06:44:58.589Z,26.17
2022-08-12T06:46:00.620Z,26.24
2022-08-12T06:47:03.274Z,26.27
2022-08-12T06:48:07.730Z,26.33
2022-08-12T06:49:13.242Z,26.38
2022-08-12T06:50:16.425Z,26.44
2022-08-12T06:51:19.803Z,26.49
2022-08-12T06:52:24.278Z,26.53
2022-08-12T06:53:26.588Z,26.56
2022-08-12T06:54:32.309Z,26.59
2022-08-12T06:55:34.165Z,26.61
2022-08-12T06:58:09.772Z,26.61
2022-08-12T06:59:14.096Z,26.62
2022-08-12T07:00:19.720Z,26.63
2022-08-12T07:01:22.406Z,26.63
2022-08-12T07:02:25.731Z,26.62
2022-08-12T07:03:28.942Z,26.60
2022-08-12T07:04:39.212Z,26.58
2022-08-12T07:05:42.510Z,26.54
2022-08-12T07:06:45.816Z,26.53
2022-08-12T07:07:47.829Z,26.52
2022-08-12T07:08:50.679Z,26.50
2022-08-12T07:10:04.681Z,26.50
2022-08-12T07:11:13.201Z,26.49
2022-08-12T07:12:18.916Z,26.46
2022-08-12T07:13:22.036Z,26.46
2022-08-12T07:14:23.594Z,26.45
2022-08-12T07:15:26.710Z,26.45
2022-08-12T07:16:50.284Z,26.45
2022-08-12T07:18:00.185Z,26.42
2022-08-12T07:19:04.140Z,26.40
2022-08-12T07:20:20.261Z,26.41
2022-08-12T07:21:59.860Z,26.37
2022-08-12T07:22:55.741Z,26.34
2022-08-12T07:23:58.532Z,26.38
2022-08-12T07:25:20.105Z,26.38
2022-08-12T07:26:23.302Z,26.40
2022-08-12T07:27:28.720Z,26.41
2022-08-12T07:28:35.428Z,26.44
2022-08-12T07:30:02.528Z,26.44
2022-08-12T07:31:00.531Z,26.44
2022-08-12T07:32:05.380Z,26.47
2022-08-12T07:33:12.175Z,26.48
2022-08-12T07:34:15.287Z,26.48
2022-08-12T07:35:19.465Z,26.51
2022-08-12T07:36:25.469Z,26.52
2022-08-12T07:37:27.408Z,26.53
2022-08-12T07:38:33.478Z,26.55
2022-08-12T07:39:35.584Z,26.55
2022-08-12T07:40:39.566Z,26.58
2022-08-12T07:41:43.313Z,26.59
2022-08-12T07:42:47.785Z,26.62
2022-08-12T07:43:53.619Z,26.64
2022-08-12T07:44:56.050Z,26.67
2022-08-12T07:46:00.219Z,26.68
2022-08-12T07:47:04.867Z,26.71
2022-08-12T07:48:07.991Z,26.72
2022-08-12T07:49:11.835Z,26.74
2022-08-12T07:50:21.449Z,26.75
2022-08-12T07:51:28.187Z,26.77
2022-08-12T07:52:29.789Z,26.79
2022-08-12T07:53:32.503Z,26.79
2022-08-12T07:54:34.227Z,26.81
2022-08-12T07:55:38.162Z,26.81
2022-08-12T07:56:41.538Z,26.83
2022-08-12T07:57:57.658Z,26.82
2022-08-12T07:59:01.079Z,26.83
2022-08-12T08:00:05.800Z,26.86
2022-08-12T08:01:12.035Z,26.86
2022-08-12T08:02:13.870Z,26.88
2022-08-12T08:03:17.017Z,26.91
2022-08-12T08:04:37.243Z,26.92
2022-08-12T08:05:46.345Z,26.93
2022-08-12T08:06:50.483Z,26.94
2022-08-12T08:07:55.485Z,26.95
2022-08-12T08:08:59.333Z,26.96
2022-08-12T08:10:05.405Z,26.98
2022-08-12T08:11:25.830Z,26.98
2022-08-12T08:12:47.202Z,26.99
2022-08-12T08:13:50.084Z,26.98
2022-08-12T08:14:52.789Z,27.01
2022-08-12T08:16:04.119Z,27.05
2022-08-12T08:17:06.395Z,27.07
2022-08-12T08:18:13.217Z,27.10
2022-08-12T08:19:23.440Z,27.11
2022-08-12T08:20:29.229Z,27.12
2022-08-12T08:21:33.289Z,27.13
2022-08-12T08:22:41.719Z,27.16
2022-08-12T08:24:05.268Z,27.16
2022-08-12T08:25:35.320Z,27.17
2022-08-12T08:26:32.550Z,27.18
2022-08-12T08:27:45.454Z,27.21
2022-08-12T08:28:48.159Z,27.22
2022-08-12T08:29:50.217Z,27.25
2022-08-12T08:30:52.857Z,27.27
2022-08-12T08:31:56.841Z,27.32
2022-08-12T08:33:00.499Z,27.33
2022-08-12T08:34:33.830Z,27.34
2022-08-12T08:35:32.819Z,27.33
2022-08-12T08:36:49.119Z,27.33
2022-08-12T08:37:52.790Z,27.34
2022-08-12T08:38:58.097Z,27.35
2022-08-12T08:40:20.819Z,27.36
2022-08-12T08:42:17.156Z,27.35
2022-08-12T08:43:03.262Z,27.32
2022-08-12T08:44:06.015Z,27.35
2022-08-12T08:45:12.891Z,27.38
2022-08-12T08:46:15.547Z,27.42
2022-08-12T08:47:17.155Z,27.48
2022-08-12T08:48:22.184Z,27.53
2022-08-12T08:49:24.770Z,27.56
2022-08-12T08:50:28.212Z,27.61
2022-08-12T08:51:31.118Z,27.64
2022-08-12T08:52:46.457Z,27.67
2022-08-12T08:53:52.774Z,27.68
2022-08-12T08:54:55.329Z,27.71
2022-08-12T08:56:04.992Z,27.71
2022-08-12T08:57:08.978Z,27.72
2022-08-12T08:58:12.558Z,27.75
2022-08-12T08:59:14.329Z,27.76
2022-08-12T09:00:18.917Z,27.80
2022-08-12T09:01:21.563Z,27.83
2022-08-12T09:02:24.324Z,27.86
2022-08-12T09:05:07.198Z,27.90
2022-08-12T09:05:13.566Z,27.92
2022-08-12T09:06:14.549Z,27.93
2022-08-12T09:07:51.002Z,27.95
2022-08-12T09:08:43.109Z,27.97
2022-08-12T09:10:02.665Z,28.02
2022-08-12T09:12:07.182Z,28.04
2022-08-12T09:13:02.386Z,28.04
2022-08-12T09:14:18.819Z,28.05
2022-08-12T09:15:21.701Z,28.08
2022-08-12T09:16:25.018Z,28.09
2022-08-12T09:17:27.153Z,28.09
2022-08-12T09:18:45.984Z,28.09
2022-08-12T09:19:52.264Z,28.12
2022-08-12T09:21:01.996Z,28.13
2022-08-12T09:22:04.999Z,28.12
2022-08-12T09:23:56.755Z,28.15
2022-08-12T09:24:33.628Z,28.14
2022-08-12T09:25:37.872Z,28.16
2022-08-12T09:26:46.891Z,28.18
2022-08-12T09:28:03.659Z,28.20
2022-08-12T09:29:12.975Z,28.22
2022-08-12T09:30:17.788Z,28.25
2022-08-12T09:32:04.157Z,28.23
2022-08-12T09:33:19.333Z,28.24
2022-08-12T09:34:34.102Z,28.25
2022-08-12T09:35:42.967Z,28.27
2022-08-12T09:36:57.817Z,28.29
2022-08-12T09:38:04.347Z,28.31
2022-08-12T09:40:08.125Z,28.33
2022-08-12T09:40:57.497Z,28.33
2022-08-12T09:42:39.209Z,28.32
2022-08-12T09:43:53.943Z,28.33
2022-08-12T09:45:23.524Z,28.34
2022-08-12T09:46:27.541Z,28.35
2022-08-12T09:47:29.650Z,28.38
2022-08-12T09:48:36.739Z,28.40
2022-08-12T09:49:42.911Z,28.41
2022-08-12T09:50:50.596Z,28.45
2022-08-12T09:51:55.101Z,28.50
2022-08-12T09:53:15.030Z,28.54
2022-08-12T09:54:32.630Z,28.56
2022-08-12T09:56:06.744Z,28.58
2022-08-12T09:58:44.954Z,28.61
2022-08-12T09:58:56.634Z,28.65
2022-08-12T10:00:13.868Z,28.65
2022-08-12T10:01:23.104Z,28.66
2022-08-12T10:02:44.048Z,28.70
2022-08-12T10:03:55.651Z,28.70
2022-08-12T10:05:09.379Z,28.70
2022-08-12T10:06:27.601Z,28.71
2022-08-12T10:07:39.760Z,28.71
2022-08-12T10:08:44.409Z,28.74
2022-08-12T10:09:58.199Z,28.78
2022-08-12T10:11:21.129Z,28.81
2022-08-12T10:12:43.614Z,28.80
2022-08-12T10:14:05.314Z,28.79
2022-08-12T10:15:08.040Z,28.83
2022-08-12T10:16:21.917Z,28.86
2022-08-12T10:17:24.418Z,28.87
2022-08-12T10:18:28.613Z,28.92
2022-08-12T10:19:36.298Z,28.93
2022-08-12T10:20:38.717Z,28.92
2022-08-12T10:21:42.562Z,28.93
2022-08-12T10:22:57.889Z,28.92
2022-08-12T10:24:04.957Z,28.93
2022-08-12T10:26:34.098Z,28.95
2022-08-12T10:27:14.117Z,28.91
2022-08-12T10:28:40.358Z,28.90
2022-08-12T10:30:37.511Z,28.91
2022-08-12T10:31:06.654Z,28.90
2022-08-12T10:32:43.831Z,28.92
2022-08-12T10:34:05.323Z,28.91
2022-08-12T10:35:10.242Z,28.89
2022-08-12T10:36:16.827Z,28.92
2022-08-12T10:37:23.368Z,28.95
2022-08-12T10:38:47.127Z,28.96
2022-08-12T10:40:01.738Z,29.00
2022-08-12T10:41:57.223Z,29.01
2022-08-12T10:43:20.975Z,28.99
2022-08-12T10:44:25.117Z,29.01
2022-08-12T10:45:32.819Z,29.05
2022-08-12T10:46:42.345Z,29.07
2022-08-12T10:48:07.815Z,29.09
2022-08-12T10:50:03.114Z,29.08
2022-08-12T10:51:02.151Z,29.07
2022-08-12T10:52:32.542Z,29.08
2022-08-12T10:53:21.309Z,29.10
2022-08-12T10:54:46.189Z,29.10
2022-08-12T10:55:56.346Z,29.14
2022-08-12T10:57:00.592Z,29.16
2022-08-12T10:58:14.746Z,29.20
2022-08-12T11:00:30.121Z,29.20
2022-08-12T11:01:25.635Z,29.19
2022-08-12T11:04:28.239Z,29.19
2022-08-12T11:04:31.478Z,29.21
2022-08-12T11:07:06.014Z,29.22
2022-08-12T11:07:08.743Z,29.21
2022-08-12T11:08:34.642Z,29.22
2022-08-12T11:09:13.597Z,29.23
2022-08-12T11:10:19.215Z,29.25
2022-08-12T11:12:34.605Z,29.27
2022-08-12T11:12:58.418Z,29.27
2022-08-12T11:14:01.900Z,29.29
2022-08-12T11:15:18.923Z,29.32
2022-08-12T11:16:25.177Z,29.34
2022-08-12T11:17:34.918Z,29.37
2022-08-12T11:18:46.949Z,29.39
2022-08-12T11:19:57.251Z,29.40
2022-08-12T11:21:00.910Z,29.45
2022-08-12T11:22:08.089Z,29.46
2022-08-12T11:23:26.012Z,29.49
2022-08-12T11:24:33.959Z,29.48
2022-08-12T11:25:42.218Z,29.50
2022-08-12T11:27:00.290Z,29.51
2022-08-12T11:28:02.875Z,29.54
2022-08-12T11:29:22.544Z,29.57
2022-08-12T11:30:31.593Z,29.59
2022-08-12T11:31:41.056Z,29.59
2022-08-12T11:32:57.674Z,29.58
2022-08-12T11:34:06.139Z,29.62
2022-08-12T11:35:22.163Z,29.59
2022-08-12T11:36:26.190Z,29.60
2022-08-12T11:37:27.837Z,29.62
2022-08-12T11:38:30.392Z,29.64
2022-08-12T11:40:55.107Z,29.65
2022-08-12T11:41:56.699Z,29.69
2022-08-12T11:43:19.110Z,29.72
2022-08-12T11:44:36.938Z,29.74
2022-08-12T11:45:47.171Z,29.77
2022-08-12T11:46:52.418Z,29.78
2022-08-12T11:47:55.583Z,29.83
2022-08-12T11:48:58.540Z,29.84
2022-08-12T11:50:00.396Z,29.85
2022-08-12T11:51:04.126Z,29.87
2022-08-12T11:52:27.253Z,29.89
2022-08-12T11:53:59.440Z,29.89
2022-08-12T11:54:54.281Z,29.87
2022-08-12T11:55:56.171Z,29.88
2022-08-12T11:57:02.482Z,29.87
2022-08-12T12:00:23.709Z,29.85
2022-08-12T12:02:21.736Z,29.81
2022-08-12T12:03:23.466Z,29.84
2022-08-12T12:04:29.322Z,29.87
2022-08-12T12:05:41.641Z,29.88
2022-08-12T12:06:52.851Z,29.89
2022-08-12T12:08:37.394Z,29.93
2022-08-12T12:09:17.704Z,29.92
2022-08-12T12:10:20.539Z,29.93
2022-08-12T12:11:24.929Z,29.95
2022-08-12T12:12:26.875Z,29.94
2022-08-12T12:14:07.444Z,29.95
2022-08-12T12:14:55.043Z,29.93
2022-08-12T12:16:00.222Z,29.95
2022-08-12T12:17:01.987Z,29.95
2022-08-12T12:18:04.666Z,29.95
2022-08-12T12:19:08.784Z,29.95
2022-08-12T12:20:13.475Z,29.96
2022-08-12T12:21:16.248Z,29.97
2022-08-12T12:22:23.665Z,30.00
2022-08-12T12:23:36.205Z,30.00
2022-08-12T12:24:38.255Z,30.02
2022-08-12T12:26:06.949Z,30.06
2022-08-12T12:27:05.039Z,30.07
2022-08-12T12:28:06.747Z,30.09
2022-08-12T12:30:19.922Z,30.10
2022-08-12T12:30:31.324Z,30.09
2022-08-12T12:32:09.257Z,30.13
2022-08-12T12:32:58.160Z,30.14
2022-08-12T12:33:59.800Z,30.16
2022-08-12T12:35:14.474Z,30.17
2022-08-12T12:36:29.596Z,30.17
2022-08-12T12:38:03.985Z,30.18
2022-08-12T12:38:54.988Z,30.18
2022-08-12T12:39:57.716Z,30.21
2022-08-12T12:41:16.440Z,30.25
2022-08-12T12:42:41.754Z,30.25
2022-08-12T12:43:43.292Z,30.26
2022-08-12T12:44:53.570Z,30.30
2022-08-12T12:45:56.967Z,30.32
2022-08-12T12:47:00.936Z,30.36
2022-08-12T12:48:06.359Z,30.37
2022-08-12T12:49:11.163Z,30.38
2022-08-12T12:50:26.934Z,30.40
2022-08-12T12:51:48.970Z,30.40
2022-08-12T12:53:01.704Z,30.38
2022-08-12T12:54:06.336Z,30.40
2022-08-12T12:55:13.708Z,30.42
2022-08-12T12:56:20.883Z,30.43
2022-08-12T12:58:00.766Z,30.42
2022-08-12T12:59:03.465Z,30.41
2022-08-12T13:00:15.596Z,30.41
2022-08-12T13:01:26.714Z,30.42
2022-08-12T13:02:33.126Z,30.42
2022-08-12T13:03:49.305Z,30.45
2022-08-12T13:04:53.657Z,30.47
2022-08-12T13:05:57.058Z,30.51
2022-08-12T13:06:58.957Z,30.54
2022-08-12T13:08:18.791Z,30.53
2022-08-12T13:09:36.145Z,30.49
2022-08-12T13:10:38.496Z,30.51
2022-08-12T13:11:55.111Z,30.51
2022-08-12T13:14:06.493Z,30.51
2022-08-12T13:14:28.861Z,30.49
2022-08-12T13:15:45.016Z,30.53
2022-08-12T13:16:48.234Z,30.53
2022-08-12T13:18:02.300Z,30.55
2022-08-12T13:19:04.309Z,30.53
2022-08-12T13:20:13.216Z,30.54
2022-08-12T13:21:55.934Z,30.51
2022-08-12T13:22:59.025Z,30.49
2022-08-12T13:24:10.474Z,30.50
2022-08-12T13:25:12.858Z,30.48
2022-08-12T13:26:17.199Z,30.53
2022-08-12T13:27:20.782Z,30.54
2022-08-12T13:28:28.435Z,30.55
2022-08-12T13:29:33.432Z,30.56
2022-08-12T13:30:36.132Z,30.56
2022-08-12T13:32:13.522Z,30.57
2022-08-12T13:33:03.079Z,30.58
2022-08-12T13:34:33.192Z,30.60
2022-08-12T13:36:06.103Z,30.61
2022-08-12T13:36:56.974Z,30.59
2022-08-12T13:38:02.503Z,30.61
2022-08-12T13:39:04.442Z,30.63
2022-08-12T13:40:11.819Z,30.64
2022-08-12T13:41:32.548Z,30.66
2022-08-12T13:42:35.334Z,30.66
2022-08-12T13:43:41.469Z,30.70
2022-08-12T13:44:43.819Z,30.71
2022-08-12T13:45:50.600Z,30.72
2022-08-12T13:46:58.608Z,30.70
2022-08-12T13:48:06.549Z,30.73
2022-08-12T13:49:11.565Z,30.72
2022-08-12T13:50:20.405Z,30.73
2022-08-12T13:51:40.992Z,30.75
2022-08-12T13:52:45.640Z,30.76
2022-08-12T13:53:58.299Z,30.78
2022-08-12T13:55:02.214Z,30.78
2022-08-12T13:56:11.836Z,30.77
2022-08-12T13:57:16.973Z,30.77
2022-08-12T13:58:21.785Z,30.77
2022-08-12T13:59:27.097Z,30.78
2022-08-12T14:00:34.418Z,30.80
2022-08-12T14:01:41.627Z,30.83
2022-08-12T14:02:43.482Z,30.87
2022-08-12T14:03:50.629Z,30.89
2022-08-12T14:04:56.576Z,30.90
2022-08-12T14:06:03.589Z,30.94
2022-08-12T14:07:09.371Z,30.93
2022-08-12T14:08:14.083Z,30.95
2022-08-12T14:09:29.496Z,30.92
2022-08-12T14:10:39.026Z,30.91
2022-08-12T14:11:59.539Z,30.91
2022-08-12T14:13:01.623Z,30.92
2022-08-12T14:14:13.139Z,30.94
2022-08-12T14:15:15.555Z,30.96
2022-08-12T14:16:37.503Z,30.99
2022-08-12T14:17:41.555Z,31.01
2022-08-12T14:18:47.450Z,31.03
2022-08-12T14:20:10.478Z,31.05
2022-08-12T14:21:22.308Z,31.03
2022-08-12T14:22:26.053Z,31.01
2022-08-12T14:24:04.453Z,31.02
2022-08-12T14:24:52.523Z,30.96
2022-08-12T14:25:59.593Z,30.97
2022-08-12T14:27:08.813Z,30.97
2022-08-12T14:28:16.223Z,30.95
2022-08-12T14:29:38.275Z,30.97
2022-08-12T14:31:00.372Z,30.93
2022-08-12T14:32:03.028Z,30.91
2022-08-12T14:33:09.186Z,30.93
2022-08-12T14:34:13.866Z,30.94
2022-08-12T14:35:19.182Z,30.97
2022-08-12T14:36:25.318Z,30.95
2022-08-12T14:37:57.619Z,30.96
2022-08-12T14:38:52.385Z,30.94
2022-08-12T14:39:55.950Z,30.93
2022-08-12T14:41:01.413Z,30.95
2022-08-12T14:42:04.538Z,30.95
2022-08-12T14:43:06.521Z,30.97
2022-08-12T14:44:58.062Z,30.97
2022-08-12T14:45:44.957Z,30.97
2022-08-12T14:46:55.653Z,30.98
2022-08-12T14:47:58.975Z,31.01
2022-08-12T14:49:42.436Z,31.03
2022-08-12T14:50:58.870Z,31.05
2022-08-12T14:52:48.244Z,31.04
2022-08-12T14:57:23.952Z,31.01
2022-08-12T14:58:27.787Z,30.98
2022-08-12T14:59:57.240Z,31.01
2022-08-12T15:01:21.215Z,30.99
2022-08-12T15:02:23.129Z,30.99
2022-08-12T15:03:52.090Z,31.02
2022-08-12T15:04:55.822Z,31.03
2022-08-12T15:06:06.607Z,31.07
2022-08-12T15:07:33.405Z,31.07
2022-08-12T15:08:49.567Z,31.10
2022-08-12T15:09:52.794Z,31.14
2022-08-12T15:10:56.315Z,31.17
2022-08-12T15:12:03.700Z,31.19
2022-08-12T15:13:08.308Z,31.21
2022-08-12T15:14:10.200Z,31.24
2022-08-12T15:15:16.336Z,31.23
2022-08-12T15:16:19.152Z,31.24